Time;durP1;ratioP1;P1;durP2;ratioP2;P2;SDS_P1;SDS_P2;PMS_P1;PMS_P2;Temp;Humidity;BMP_temperature;BMP_pressure;BME280_temperature;BME280_humidity;BME280_pressure;Samples;Min_cycle;Max_cycle;Signal;HPM_P1;HPM_P2
2022/05/02 00:00:13;;;;;;;9.05;3.67;;;16.50;99.90;;;;;;5068899;28;20419;-86
2022/05/02 00:02:40;;;;;;;9.43;3.60;;;16.50;99.90;;;;;;5068850;28;20545;-87
2022/05/02 00:05:08;;;;;;;8.32;3.40;;;16.60;99.90;;;;;;5068842;28;20377;-88
2022/05/02 00:07:35;;;;;;;8.35;3.38;;;16.80;99.90;;;;;;5068978;28;20382;-87
2022/05/02 00:10:03;;;;;;;8.00;3.55;;;16.90;99.90;;;;;;5069352;28;20385;-85
2022/05/02 00:12:30;;;;;;;7.53;3.30;;;16.90;99.90;;;;;;5069175;28;20442;-86
2022/05/02 00:14:59;;;;;;;7.90;3.20;;;17.00;99.90;;;;;;5069486;28;20407;-87
2022/05/02 00:20:11;;;;;;;8.25;3.25;;;17.30;99.90;;;;;;5069156;28;20427;-84
2022/05/02 00:22:41;;;;;;;10.70;3.10;;;17.30;99.90;;;;;;5068420;28;20406;-85
2022/05/02 00:25:08;;;;;;;7.53;2.90;;;17.40;99.90;;;;;;5068263;28;20734;-85
2022/05/02 00:27:38;;;;;;;8.98;2.88;;;17.50;99.90;;;;;;5068468;28;20388;-87
2022/05/02 00:30:07;;;;;;;7.38;2.92;;;17.60;99.90;;;;;;5068375;28;20370;-87
2022/05/02 00:32:35;;;;;;;8.57;2.92;;;17.90;99.90;;;;;;5068641;28;20374;-86
2022/05/02 00:35:02;;;;;;;8.18;3.15;;;18.00;99.90;;;;;;5068600;28;20410;-87
2022/05/02 00:37:29;;;;;;;11.48;3.28;;;18.00;99.90;;;;;;5068479;28;20711;-86
2022/05/02 00:39:57;;;;;;;7.30;2.83;;;18.10;99.90;;;;;;5068626;28;20400;-86
2022/05/02 00:42:24;;;;;;;6.95;2.60;;;18.30;99.90;;;;;;5068755;28;20402;-88
2022/05/02 00:44:51;;;;;;;8.48;3.25;;;18.50;99.90;;;;;;5068589;28;20385;-88
2022/05/02 00:47:20;;;;;;;9.00;3.30;;;18.70;99.90;;;;;;5069067;28;20370;-88
2022/05/02 00:49:51;;;;;;;10.63;3.30;;;18.70;99.90;;;;;;5069000;28;20382;-86
2022/05/02 00:52:19;;;;;;;9.95;3.10;;;18.90;99.90;;;;;;5068811;28;20749;-88
2022/05/02 00:54:47;;;;;;;10.63;3.10;;;19.00;99.90;;;;;;5068363;28;20374;-87
2022/05/02 00:57:15;;;;;;;8.35;3.15;;;19.00;99.90;;;;;;5068129;28;20458;-85
2022/05/02 00:59:44;;;;;;;8.02;3.00;;;19.00;99.90;;;;;;5068278;28;20377;-86
2022/05/02 01:02:13;;;;;;;8.93;2.65;;;19.10;99.90;;;;;;5068340;28;20402;-85
2022/05/02 01:04:42;;;;;;;7.75;2.50;;;19.20;99.90;;;;;;5068386;28;20428;-84
2022/05/02 01:07:10;;;;;;;9.40;2.72;;;19.40;99.90;;;;;;5066620;28;20402;-83
2022/05/02 01:09:42;;;;;;;9.98;3.35;;;19.60;99.90;;;;;;5068065;28;20451;-84
2022/05/02 01:12:11;;;;;;;7.28;2.95;;;19.80;99.90;;;;;;5068053;28;20374;-83
2022/05/02 01:14:38;;;;;;;9.75;3.08;;;19.70;99.90;;;;;;5066914;28;20486;-86
2022/05/02 01:17:06;;;;;;;7.47;2.80;;;19.70;99.90;;;;;;5067761;28;20374;-85
2022/05/02 01:19:33;;;;;;;7.27;2.57;;;20.00;99.90;;;;;;5066371;28;20833;-86
2022/05/02 01:22:01;;;;;;;8.30;2.55;;;20.50;99.90;;;;;;5067263;28;20527;-86
2022/05/02 01:24:36;;;;;;;9.50;2.65;;;20.90;99.90;;;;;;5067753;28;20385;-87
2022/05/02 01:27:04;;;;;;;8.60;2.35;;;21.30;99.90;;;;;;5067456;28;20367;-85
2022/05/02 01:29:32;;;;;;;6.63;2.30;;;21.90;99.90;;;;;;5067667;28;20468;-87
2022/05/02 01:32:01;;;;;;;10.00;2.42;;;22.50;99.90;;;;;;5067451;28;20416;-85
2022/05/02 01:34:28;;;;;;;7.35;2.22;;;22.90;99.90;;;;;;5067359;28;20389;-88
2022/05/02 01:36:56;;;;;;;9.50;2.17;;;23.30;99.90;;;;;;5067216;28;20831;-85
2022/05/02 01:39:23;;;;;;;10.10;2.10;;;23.60;99.90;;;;;;5067914;28;20854;-84
2022/05/02 01:41:50;;;;;;;8.38;2.03;;;23.10;99.40;;;;;;5067063;28;20378;-86
2022/05/02 01:44:17;;;;;;;7.78;2.10;;;22.60;99.90;;;;;;5066986;28;20382;-85
2022/05/02 01:46:44;;;;;;;7.68;2.08;;;22.90;99.90;;;;;;5067149;28;20442;-84
2022/05/02 01:49:12;;;;;;;7.95;1.85;;;23.70;99.80;;;;;;5068150;28;20386;-88
2022/05/02 01:51:40;;;;;;;6.93;2.08;;;24.50;97.60;;;;;;5067640;28;20366;-84
2022/05/02 01:54:07;;;;;;;8.10;2.10;;;24.40;96.20;;;;;;5067307;28;20885;-85
2022/05/02 01:56:34;;;;;;;6.83;1.90;;;24.50;95.90;;;;;;5067232;28;20765;-86
2022/05/02 01:59:01;;;;;;;6.83;1.80;;;24.80;94.70;;;;;;5067545;28;20409;-84
2022/05/02 02:01:28;;;;;;;6.20;1.87;;;24.80;94.10;;;;;;5067411;28;20760;-84
2022/05/02 02:03:56;;;;;;;8.57;1.97;;;24.80;93.30;;;;;;5062752;28;20433;-86
2022/05/02 02:06:23;;;;;;;7.55;1.95;;;24.70;93.70;;;;;;5066839;28;20861;-90
2022/05/02 02:08:50;;;;;;;5.40;1.87;;;25.20;92.60;;;;;;5066872;28;20425;-88
2022/05/02 02:11:17;;;;;;;8.05;1.90;;;25.60;92.10;;;;;;5066789;28;20366;-85
2022/05/02 02:13:45;;;;;;;5.53;1.70;;;25.30;90.10;;;;;;5066881;28;20373;-88
2022/05/02 02:16:13;;;;;;;5.85;1.80;;;25.00;90.00;;;;;;5066791;28;20473;-87
2022/05/02 02:18:43;;;;;;;5.75;1.88;;;24.70;91.60;;;;;;5066813;28;20501;-86
2022/05/02 02:21:11;;;;;;;7.55;1.80;;;24.70;90.90;;;;;;5066519;28;20423;-85
2022/05/02 02:23:39;;;;;;;7.85;1.83;;;24.10;92.20;;;;;;5064751;28;20816;-86
2022/05/02 02:26:06;;;;;;;5.72;1.40;;;23.60;93.10;;;;;;5066360;28;20378;-85
2022/05/02 02:28:34;;;;;;;7.57;1.70;;;23.10;95.50;;;;;;5066427;28;20382;-87
2022/05/02 02:31:01;;;;;;;9.32;1.95;;;22.90;95.10;;;;;;5066446;28;20908;-85
2022/05/02 02:33:30;;;;;;;8.88;1.90;;;22.90;96.50;;;;;;5066210;28;20373;-87
2022/05/02 02:35:59;;;;;;;7.18;1.98;;;22.80;95.30;;;;;;5066185;28;20362;-85
2022/05/02 02:38:26;;;;;;;6.57;1.80;;;22.50;96.70;;;;;;5066905;28;20393;-89
2022/05/02 02:40:53;;;;;;;6.70;1.80;;;22.10;98.70;;;;;;5068148;28;20748;-86
2022/05/02 02:43:20;;;;;;;8.55;1.80;;;22.30;98.90;;;;;;5066994;28;20433;-85
2022/05/02 02:45:47;;;;;;;5.57;1.70;;;22.60;98.20;;;;;;5067638;28;20378;-85
2022/05/02 02:48:14;;;;;;;8.95;1.80;;;22.90;97.80;;;;;;5070573;28;20454;-84
2022/05/02 02:50:41;;;;;;;6.90;1.92;;;23.20;98.10;;;;;;5071307;28;20378;-84
2022/05/02 02:53:09;;;;;;;7.60;1.70;;;23.50;96.50;;;;;;5071092;28;20405;-84
2022/05/02 02:55:36;;;;;;;6.70;1.80;;;23.90;95.20;;;;;;5071010;28;20734;-83
2022/05/02 02:58:04;;;;;;;8.40;1.77;;;24.20;94.10;;;;;;5070866;28;20392;-84
2022/05/02 03:00:31;;;;;;;9.30;1.90;;;24.40;92.70;;;;;;5071428;28;20389;-84
2022/05/02 03:02:58;;;;;;;6.93;1.60;;;24.70;92.60;;;;;;5069905;28;20431;-84
2022/05/02 03:08:11;;;;;;;5.18;1.40;;;26.40;85.60;;;;;;5070061;28;20377;-86
2022/05/02 03:10:38;;;;;;;5.57;1.40;;;26.70;78.20;;;;;;5069917;28;20385;-86
2022/05/02 03:13:05;;;;;;;5.60;1.42;;;26.50;79.20;;;;;;5070191;28;20382;-88
2022/05/02 03:15:33;;;;;;;7.75;1.55;;;26.60;79.30;;;;;;5070024;28;20423;-86
2022/05/02 03:18:00;;;;;;;5.53;1.50;;;26.90;75.50;;;;;;5069718;28;20374;-85
2022/05/02 03:20:27;;;;;;;4.50;1.47;;;27.10;73.90;;;;;;5069648;28;20930;-86
2022/05/02 03:22:54;;;;;;;5.40;1.30;;;26.80;75.20;;;;;;5069295;28;20446;-88
2022/05/02 03:25:21;;;;;;;4.25;1.40;;;28.20;74.10;;;;;;5068216;28;20378;-88
2022/05/02 03:27:48;;;;;;;4.95;1.58;;;28.00;72.00;;;;;;5068259;28;20425;-89
2022/05/02 03:30:15;;;;;;;6.38;1.42;;;28.20;70.10;;;;;;5069482;28;20382;-88
2022/05/02 03:32:42;;;;;;;4.78;1.45;;;27.80;69.20;;;;;;5069652;28;20385;-88
2022/05/02 03:35:09;;;;;;;4.68;1.50;;;27.60;71.10;;;;;;5069806;28;20366;-86
2022/05/02 03:37:37;;;;;;;5.10;1.40;;;27.80;69.70;;;;;;5069360;28;20392;-87
2022/05/02 03:40:08;;;;;;;7.63;1.50;;;28.00;67.80;;;;;;5068542;28;21559;-87
2022/05/02 03:42:38;;;;;;;6.13;1.40;;;28.40;66.40;;;;;;5069219;28;20382;-88
2022/05/02 03:45:09;;;;;;;4.57;1.40;;;28.60;66.30;;;;;;5069128;28;20390;-89
2022/05/02 03:47:36;;;;;;;5.25;1.33;;;28.90;64.10;;;;;;5069177;28;20784;-88
2022/05/02 03:50:03;;;;;;;4.82;1.30;;;29.00;63.80;;;;;;5067607;28;20390;-89
2022/05/02 03:52:30;;;;;;;5.43;1.55;;;29.00;64.40;;;;;;5069312;28;20378;-88
2022/05/02 03:54:58;;;;;;;5.75;1.60;;;28.60;64.40;;;;;;5069009;28;20376;-90
2022/05/02 03:57:25;;;;;;;6.93;1.60;;;27.70;66.40;;;;;;5067400;28;20386;-89
2022/05/02 03:59:51;;;;;;;4.82;1.48;;;26.60;70.20;;;;;;5068277;28;20389;-89
2022/05/02 04:02:19;;;;;;;6.20;1.50;;;26.70;71.90;;;;;;5068759;28;20893;-84
2022/05/02 04:04:45;;;;;;;6.43;1.50;;;27.20;71.30;;;;;;5068826;28;20390;-85
2022/05/02 04:07:12;;;;;;;5.80;1.45;;;27.30;70.40;;;;;;5068834;28;20415;-86
2022/05/02 04:09:39;;;;;;;4.93;1.48;;;27.50;70.00;;;;;;5069069;28;20424;-85
2022/05/02 04:12:07;;;;;;;5.03;1.40;;;27.30;69.30;;;;;;5068447;28;20734;-88
2022/05/02 04:14:34;;;;;;;3.87;1.20;;;26.40;71.50;;;;;;5068586;28;20382;-87
2022/05/02 04:17:01;;;;;;;5.20;1.40;;;26.30;72.70;;;;;;5067033;28;20918;-87
2022/05/02 04:19:28;;;;;;;6.65;1.48;;;27.10;71.00;;;;;;5068550;28;20500;-89
2022/05/02 04:21:55;;;;;;;4.75;1.25;;;27.20;69.00;;;;;;5068532;28;20382;-88
2022/05/02 04:24:22;;;;;;;3.95;1.42;;;27.40;67.90;;;;;;5068558;28;20462;-87
2022/05/02 04:26:49;;;;;;;5.65;1.48;;;27.60;68.00;;;;;;5068601;28;20371;-86
2022/05/02 04:29:16;;;;;;;4.07;1.50;;;28.00;69.00;;;;;;5068508;28;20382;-85
2022/05/02 04:31:43;;;;;;;7.45;1.60;;;28.40;66.50;;;;;;5068052;28;20361;-87
2022/05/02 04:34:10;;;;;;;4.85;1.40;;;28.60;65.80;;;;;;5068296;28;20378;-89
2022/05/02 04:36:37;;;;;;;5.68;1.42;;;28.20;66.00;;;;;;5068302;28;20382;-87
2022/05/02 04:39:04;;;;;;;5.00;1.30;;;28.10;68.40;;;;;;5068238;28;20386;-87
2022/05/02 04:41:31;;;;;;;3.45;1.25;;;28.60;65.00;;;;;;5068317;28;20365;-85
2022/05/02 04:43:58;;;;;;;3.83;1.20;;;29.00;62.30;;;;;;5067802;28;20401;-87
2022/05/02 04:46:26;;;;;;;3.10;1.17;;;28.30;62.80;;;;;;5067931;28;20445;-86
2022/05/02 04:48:54;;;;;;;2.53;1.03;;;27.70;65.10;;;;;;5068126;28;20406;-85
2022/05/02 04:51:20;;;;;;;3.85;1.10;;;28.20;64.40;;;;;;5067879;28;20394;-85
2022/05/02 04:53:47;;;;;;;5.82;1.27;;;29.20;61.60;;;;;;5067678;28;20374;-86
2022/05/02 04:56:14;;;;;;;4.22;1.20;;;30.20;60.70;;;;;;5067715;28;20370;-89
2022/05/02 04:58:41;;;;;;;3.67;1.20;;;29.70;59.80;;;;;;5067730;28;20377;-89
2022/05/02 05:01:08;;;;;;;4.15;1.42;;;29.90;61.20;;;;;;5066537;28;20490;-89
2022/05/02 05:03:37;;;;;;;4.35;1.40;;;29.50;62.00;;;;;;5067578;28;20401;-85
2022/05/02 05:06:04;;;;;;;5.07;1.50;;;28.90;64.40;;;;;;5067567;28;20473;-85
2022/05/02 05:08:31;;;;;;;4.93;1.35;;;27.90;65.60;;;;;;5067579;28;20389;-85
2022/05/02 05:11:23;;;;;;;5.50;1.40;;;27.30;69.10;;;;;;5067281;28;20395;-84
2022/05/02 05:17:43;;;;;;;5.43;1.48;;;26.80;69.50;;;;;;5025212;28;20379;-85
2022/05/02 05:20:21;;;;;;;5.17;1.40;;;26.50;70.70;;;;;;5025670;28;20435;-84
2022/05/02 05:23:11;;;;;;;5.22;1.50;;;26.10;71.60;;;;;;5025594;28;20917;-86
2022/05/02 05:25:57;;;;;;;4.75;1.50;;;26.20;71.80;;;;;;5025149;28;20386;-85
2022/05/02 05:29:00;;;;;;;4.45;1.33;;;26.20;71.90;;;;;;5024912;28;20377;-85
2022/05/02 05:31:40;;;;;;;5.60;1.40;;;25.90;71.80;;;;;;5025083;28;20746;-86
2022/05/02 05:34:17;;;;;;;6.00;1.50;;;25.60;74.10;;;;;;5008346;28;20446;-86
2022/05/02 05:36:59;;;;;;;6.60;1.80;;;25.40;74.70;;;;;;5024848;28;20382;-86
2022/05/02 05:39:59;;;;;;;4.50;1.50;;;25.10;76.10;;;;;;5025114;28;20547;-86
2022/05/02 05:43:03;;;;;;;5.13;1.48;;;24.60;79.40;;;;;;5024707;28;20820;-88
2022/05/02 05:46:00;;;;;;;4.23;1.40;;;24.40;80.10;;;;;;5026224;28;20769;-85
2022/05/02 05:48:54;;;;;;;5.72;1.50;;;24.10;81.60;;;;;;5024958;28;20413;-85
2022/05/02 05:51:48;;;;;;;5.13;1.70;;;23.90;82.50;;;;;;5022038;28;20398;-86
2022/05/02 05:54:27;;;;;;;5.38;1.50;;;23.80;83.90;;;;;;5034799;28;20375;-84
2022/05/02 05:57:04;;;;;;;6.07;1.60;;;23.70;86.90;;;;;;5050469;28;20418;-85
2022/05/02 05:59:49;;;;;;;10.48;1.75;;;23.60;88.00;;;;;;5067371;28;20378;-85
2022/05/02 06:02:21;;;;;;;5.50;1.75;;;23.50;90.20;;;;;;5066751;28;20374;-85
2022/05/02 06:04:51;;;;;;;4.38;1.40;;;23.40;91.30;;;;;;5067001;28;20413;-86
2022/05/02 06:07:20;;;;;;;6.40;1.60;;;23.40;90.90;;;;;;5066820;28;20374;-86
2022/05/02 06:09:49;;;;;;;6.35;1.50;;;23.30;91.20;;;;;;5066880;28;20813;-86
2022/05/02 06:12:20;;;;;;;6.78;1.50;;;23.10;91.60;;;;;;5065579;28;20431;-86
2022/05/02 06:20:25;;;;;;;6.10;1.60;;;22.90;92.70;;;;;;5066698;28;20377;-85
2022/05/02 06:22:52;;;;;;;5.13;1.60;;;22.70;94.20;;;;;;5069737;28;20454;-86
2022/05/02 06:25:21;;;;;;;6.22;1.60;;;22.70;95.30;;;;;;5069101;28;20412;-85
2022/05/02 06:27:50;;;;;;;4.95;1.50;;;22.60;97.20;;;;;;5070995;28;20379;-86
2022/05/02 06:30:17;;;;;;;5.47;1.50;;;22.60;97.90;;;;;;5071797;28;20425;-85
2022/05/02 06:32:45;;;;;;;3.35;1.30;;;22.50;98.00;;;;;;5074960;28;20397;-85
2022/05/02 06:35:13;;;;;;;6.65;1.63;;;22.40;98.30;;;;;;5070531;28;20381;-85
2022/05/02 06:37:45;;;;;;;5.82;1.60;;;22.10;99.60;;;;;;5070580;28;20830;-85
2022/05/02 06:40:27;;;;;;;7.03;1.88;;;21.90;99.90;;;;;;5068960;28;20390;-85
2022/05/02 06:42:57;;;;;;;6.38;1.67;;;21.80;99.90;;;;;;5061482;28;20731;-86
2022/05/02 06:45:32;;;;;;;5.55;1.45;;;21.50;99.90;;;;;;5053913;28;20387;-85
2022/05/02 06:48:13;;;;;;;7.40;1.75;;;22.00;99.90;;;;;;5050291;28;21111;-85
2022/05/02 06:50:45;;;;;;;7.18;1.55;;;21.20;99.90;;;;;;5049839;28;20380;-85
2022/05/02 06:53:51;;;;;;;7.90;1.90;;;21.00;99.90;;;;;;5069728;28;20440;-85
2022/05/02 06:56:26;;;;;;;6.40;1.60;;;20.80;99.90;;;;;;5069649;28;20374;-85
2022/05/02 06:59:34;;;;;;;7.10;1.70;;;20.60;99.90;;;;;;5068945;28;21002;-87
2022/05/02 07:02:13;;;;;;;6.28;1.92;;;20.50;99.90;;;;;;5070620;28;20373;-86
2022/05/02 07:04:48;;;;;;;6.03;1.95;;;20.40;99.90;;;;;;5070242;28;20958;-85
2022/05/02 07:07:57;;;;;;;6.13;1.93;;;20.30;99.90;;;;;;5069933;28;20401;-85
2022/05/02 07:10:29;;;;;;;5.57;1.90;;;20.20;99.90;;;;;;5070156;28;20381;-85
2022/05/02 07:13:29;;;;;;;7.90;2.17;;;20.00;99.90;;;;;;5069552;28;20382;-84
2022/05/02 07:16:21;;;;;;;7.43;2.25;;;19.90;99.90;;;;;;5069388;28;20381;-84
2022/05/02 07:19:15;;;;;;;6.93;2.20;;;19.70;99.90;;;;;;5069347;28;20385;-85
2022/05/02 07:21:49;;;;;;;6.15;2.10;;;19.50;99.90;;;;;;5069461;28;20366;-84
2022/05/02 07:24:28;;;;;;;8.40;1.87;;;19.40;99.90;;;;;;5069470;28;20414;-86
2022/05/02 07:27:04;;;;;;;8.40;2.10;;;19.30;99.90;;;;;;5069416;28;20382;-86
2022/05/02 07:29:35;;;;;;;7.30;2.15;;;19.20;99.90;;;;;;5068498;28;20386;-86
2022/05/02 07:32:02;;;;;;;6.72;2.00;;;19.10;99.90;;;;;;5064752;28;20727;-84
2022/05/02 07:34:31;;;;;;;8.63;2.10;;;19.00;99.90;;;;;;5066500;28;20867;-86
2022/05/02 07:36:59;;;;;;;6.15;1.88;;;18.90;99.90;;;;;;5069450;28;20515;-86
2022/05/02 07:39:28;;;;;;;5.97;2.03;;;18.90;99.90;;;;;;5068982;28;20442;-86
2022/05/02 07:42:03;;;;;;;8.35;2.30;;;18.80;99.90;;;;;;5068676;28;20401;-85
2022/05/02 07:44:34;;;;;;;6.47;2.10;;;18.80;99.90;;;;;;5069010;28;20441;-86
2022/05/02 07:47:04;;;;;;;8.25;2.20;;;18.70;99.90;;;;;;5069335;28;20392;-86
2022/05/02 07:49:34;;;;;;;5.78;2.10;;;18.60;99.90;;;;;;5068448;28;20897;-82
2022/05/02 07:52:05;;;;;;;8.65;2.60;;;18.60;99.90;;;;;;5067346;28;20432;-86
2022/05/02 07:54:40;;;;;;;6.97;2.40;;;18.60;99.90;;;;;;5071353;28;20388;-84
2022/05/02 07:57:07;;;;;;;7.35;2.22;;;18.50;99.90;;;;;;5068237;28;20377;-86
2022/05/02 07:59:40;;;;;;;6.10;2.20;;;18.50;99.90;;;;;;5067004;28;20386;-84
2022/05/02 08:02:08;;;;;;;7.73;2.30;;;18.50;99.90;;;;;;5067147;28;20382;-85
2022/05/02 08:04:41;;;;;;;7.18;2.20;;;18.40;99.90;;;;;;5068170;28;20394;-85
2022/05/02 08:07:15;;;;;;;7.53;2.40;;;18.30;99.90;;;;;;5067961;28;20539;-85
2022/05/02 08:09:48;;;;;;;7.78;2.45;;;18.30;99.90;;;;;;5068883;28;20366;-84
2022/05/02 08:12:28;;;;;;;6.80;2.35;;;18.20;99.90;;;;;;5068021;28;20381;-85
2022/05/02 08:15:11;;;;;;;6.43;2.42;;;18.20;99.90;;;;;;5068513;28;20389;-85
2022/05/02 08:17:44;;;;;;;9.05;2.63;;;18.20;99.90;;;;;;5068523;28;20426;-84
2022/05/02 08:20:32;;;;;;;6.97;2.92;;;18.10;99.90;;;;;;5067797;28;20401;-86
2022/05/02 08:30:01;;;;;;;8.60;2.80;;;17.90;99.90;;;;;;4985964;28;20792;-85
2022/05/02 08:32:56;;;;;;;7.68;2.72;;;17.80;99.90;;;;;;4993864;28;20485;-84
2022/05/02 08:35:58;;;;;;;8.33;2.80;;;17.70;99.90;;;;;;4983642;28;20437;-85
2022/05/02 08:38:46;;;;;;;7.72;2.95;;;17.70;99.90;;;;;;4947631;29;20392;-86
2022/05/02 08:41:33;;;;;;;9.27;3.00;;;17.60;99.90;;;;;;4947308;29;20400;-86
2022/05/02 08:44:28;;;;;;;10.50;3.00;;;17.50;99.90;;;;;;4948827;28;20900;-86
2022/05/02 08:47:35;;;;;;;7.43;3.13;;;17.50;99.90;;;;;;4948140;28;20393;-87
2022/05/02 08:50:20;;;;;;;9.88;3.05;;;17.50;99.90;;;;;;4945785;28;20452;-86
2022/05/02 08:53:08;;;;;;;10.65;3.65;;;17.40;99.90;;;;;;4949567;28;20445;-84
2022/05/02 08:56:04;;;;;;;10.32;3.45;;;17.40;99.90;;;;;;4947760;28;20388;-86
2022/05/02 08:58:56;;;;;;;10.02;3.90;;;17.30;99.90;;;;;;4937602;29;20771;-86
2022/05/02 09:01:52;;;;;;;7.95;3.55;;;17.30;99.90;;;;;;4909545;29;20624;-86
2022/05/02 09:04:28;;;;;;;7.97;3.72;;;17.20;99.90;;;;;;4906640;29;20420;-86
2022/05/02 09:07:13;;;;;;;10.02;3.92;;;17.20;99.90;;;;;;4905825;29;20402;-85
2022/05/02 09:10:15;;;;;;;11.55;3.75;;;17.20;99.90;;;;;;4893057;29;20393;-85
2022/05/02 09:13:06;;;;;;;11.25;3.80;;;17.20;99.90;;;;;;4924966;29;20392;-84
2022/05/02 09:15:38;;;;;;;12.32;4.20;;;17.10;99.90;;;;;;4947477;29;20388;-86
2022/05/02 09:18:12;;;;;;;11.00;3.70;;;17.10;99.90;;;;;;4947146;28;20381;-88
2022/05/02 09:21:17;;;;;;;9.87;4.07;;;17.00;99.90;;;;;;4963283;28;20426;-86
2022/05/02 09:24:16;;;;;;;11.15;4.35;;;17.00;99.90;;;;;;4965268;28;20431;-85
2022/05/02 09:27:21;;;;;;;11.50;5.35;;;16.90;99.90;;;;;;4966027;28;21173;-85
2022/05/02 09:30:05;;;;;;;11.63;4.75;;;16.50;99.90;;;;;;4973480;28;20462;-85
2022/05/02 09:32:46;;;;;;;13.98;4.68;;;16.80;99.90;;;;;;4970494;28;20391;-87
2022/05/02 09:35:34;;;;;;;14.00;6.03;;;16.80;99.90;;;;;;4969345;28;20452;-85
2022/05/02 09:38:18;;;;;;;16.85;9.77;;;16.70;99.90;;;;;;5008353;28;20466;-86
2022/05/02 09:40:46;;;;;;;19.48;11.77;;;16.80;99.90;;;;;;5067023;28;20369;-85
2022/05/02 09:49:47;;;;;;;28.95;18.63;;;16.60;99.90;;;;;;5003761;28;20426;-86
2022/05/02 09:52:16;;;;;;;25.85;19.17;;;16.50;99.90;;;;;;5003983;28;20430;-85
2022/05/02 09:58:04;;;;;;;21.85;14.13;;;16.40;99.90;;;;;;4989591;28;20393;-86
2022/05/02 10:03:34;;;;;;;14.43;8.10;;;16.30;99.90;;;;;;4991473;28;20515;-87
2022/05/02 10:06:14;;;;;;;15.55;8.80;;;16.30;99.90;;;;;;5004444;28;20844;-86
2022/05/02 10:08:48;;;;;;;13.52;6.65;;;16.30;99.90;;;;;;4985587;28;20403;-84
2022/05/02 10:11:40;;;;;;;12.13;6.70;;;16.20;99.90;;;;;;4985474;28;20377;-86
2022/05/02 10:14:22;;;;;;;11.65;5.68;;;16.20;99.90;;;;;;4985867;28;20897;-88
2022/05/02 10:17:00;;;;;;;11.25;5.75;;;16.10;99.90;;;;;;4987849;28;20407;-86
2022/05/02 10:19:36;;;;;;;10.75;5.10;;;16.10;99.90;;;;;;4988935;28;20424;-85
2022/05/02 10:22:22;;;;;;;11.30;4.97;;;16.00;99.90;;;;;;4987059;28;20413;-86
2022/05/02 10:25:16;;;;;;;11.63;4.78;;;16.10;99.90;;;;;;5004582;28;20414;-86
2022/05/02 10:28:10;;;;;;;11.25;4.97;;;16.00;99.90;;;;;;5066835;28;20374;-86
2022/05/02 10:31:01;;;;;;;11.83;4.50;;;16.00;99.90;;;;;;5064980;28;20858;-86
2022/05/02 10:33:45;;;;;;;8.37;4.67;;;15.90;99.90;;;;;;5065961;28;20386;-85
2022/05/02 10:36:12;;;;;;;10.95;4.57;;;15.90;99.90;;;;;;5051153;28;20377;-85
2022/05/02 10:38:54;;;;;;;9.85;4.35;;;15.90;99.90;;;;;;5066357;28;20385;-86
2022/05/02 10:41:48;;;;;;;12.00;4.25;;;15.80;99.90;;;;;;5064797;28;20398;-85
2022/05/02 10:44:19;;;;;;;12.37;4.37;;;15.80;99.90;;;;;;5065173;28;20448;-87
2022/05/02 10:46:50;;;;;;;10.27;3.92;;;15.80;99.90;;;;;;5067019;28;20400;-85
2022/05/02 10:49:51;;;;;;;10.98;4.10;;;15.80;99.90;;;;;;5066322;28;20394;-86
2022/05/02 10:53:02;;;;;;;13.30;4.50;;;15.70;99.90;;;;;;5061027;28;20436;-86
2022/05/02 10:55:37;;;;;;;12.30;4.50;;;15.70;99.90;;;;;;5064175;28;20788;-86
2022/05/02 10:58:09;;;;;;;11.73;4.43;;;15.70;99.90;;;;;;5066153;28;20413;-86
2022/05/02 11:01:01;;;;;;;11.70;4.50;;;15.60;99.90;;;;;;5065297;28;20395;-86
2022/05/02 11:03:54;;;;;;;10.43;4.50;;;15.60;99.90;;;;;;5064862;28;20962;-86
2022/05/02 11:06:42;;;;;;;10.00;4.32;;;15.60;99.90;;;;;;5056109;28;20383;-86
2022/05/02 11:09:21;;;;;;;12.32;4.80;;;15.60;99.90;;;;;;5069463;28;20385;-85
2022/05/02 11:11:50;;;;;;;12.23;4.57;;;15.50;99.90;;;;;;5069087;28;20754;-85
2022/05/02 11:14:47;;;;;;;14.48;4.70;;;15.50;99.90;;;;;;5070309;28;20404;-86
2022/05/02 11:17:35;;;;;;;14.02;5.20;;;15.40;99.90;;;;;;5073897;28;20417;-89
2022/05/02 11:23:31;;;;;;;13.07;5.00;;;15.40;99.90;;;;;;5071150;28;20438;-85
2022/05/02 11:26:32;;;;;;;14.27;5.20;;;15.40;99.90;;;;;;5086099;28;20385;-87
2022/05/02 11:29:11;;;;;;;12.55;5.10;;;15.40;99.90;;;;;;5070690;28;20372;-87
2022/05/02 11:31:56;;;;;;;14.90;5.57;;;15.40;99.90;;;;;;5070056;28;20389;-86
2022/05/02 11:34:29;;;;;;;12.23;5.65;;;15.40;99.90;;;;;;5069633;28;20378;-87
2022/05/02 11:36:58;;;;;;;14.33;5.87;;;15.30;99.90;;;;;;5070696;28;20382;-87
2022/05/02 11:40:01;;;;;;;14.65;5.90;;;15.30;99.90;;;;;;5070246;28;20849;-86
2022/05/02 11:42:30;;;;;;;14.18;5.93;;;15.30;99.90;;;;;;5068770;28;20386;-87
2022/05/02 11:45:12;;;;;;;13.30;5.97;;;15.30;99.90;;;;;;5069666;28;20382;-87
2022/05/02 11:47:57;;;;;;;14.90;5.95;;;15.30;99.90;;;;;;5070993;28;20421;-87
2022/05/02 11:50:26;;;;;;;14.80;6.45;;;15.30;99.90;;;;;;5071091;28;20393;-88
2022/05/02 11:52:55;;;;;;;11.30;5.88;;;15.20;99.90;;;;;;5071358;28;20390;-86
2022/05/02 11:55:30;;;;;;;18.15;6.75;;;15.20;99.90;;;;;;5072687;28;20417;-85
2022/05/02 11:58:07;;;;;;;17.83;7.00;;;15.20;99.90;;;;;;5070036;28;20370;-84
2022/05/02 12:00:37;;;;;;;12.95;6.57;;;15.20;99.90;;;;;;5070544;28;20404;-85
2022/05/02 12:03:10;;;;;;;13.00;6.40;;;15.20;99.90;;;;;;5069771;28;20402;-86
2022/05/02 12:05:41;;;;;;;13.57;6.53;;;15.20;99.90;;;;;;5070066;28;20401;-83
2022/05/02 12:08:42;;;;;;;13.53;6.40;;;15.20;99.90;;;;;;5071159;28;20412;-84
2022/05/02 12:11:11;;;;;;;14.07;6.25;;;15.20;99.90;;;;;;5050950;28;20433;-84
2022/05/02 12:13:44;;;;;;;15.93;6.50;;;15.10;99.90;;;;;;5069904;28;20389;-84
2022/05/02 12:16:21;;;;;;;10.27;5.70;;;15.20;99.90;;;;;;5068228;28;20378;-84
2022/05/02 12:18:56;;;;;;;13.63;5.90;;;15.10;99.90;;;;;;5068661;28;20862;-85
2022/05/02 12:21:31;;;;;;;10.90;5.50;;;15.10;99.90;;;;;;5068790;28;20416;-85
2022/05/02 12:24:02;;;;;;;11.75;5.68;;;15.10;99.90;;;;;;5068459;28;20429;-85
2022/05/02 12:26:32;;;;;;;14.00;6.97;;;15.10;99.90;;;;;;5068173;28;20758;-85
2022/05/02 12:29:04;;;;;;;15.45;6.30;;;15.10;99.90;;;;;;5068275;28;20475;-85
2022/05/02 12:31:34;;;;;;;11.98;5.80;;;15.00;99.90;;;;;;5068412;28;20417;-86
2022/05/02 12:34:10;;;;;;;11.35;5.78;;;15.00;99.90;;;;;;5068415;28;20427;-86
2022/05/02 12:36:46;;;;;;;11.52;5.70;;;15.00;99.90;;;;;;5068052;28;20475;-84
2022/05/02 12:39:18;;;;;;;11.38;5.97;;;15.00;99.90;;;;;;5067892;28;20461;-84
2022/05/02 12:41:49;;;;;;;12.43;5.90;;;14.90;99.90;;;;;;5067828;28;20426;-86
2022/05/02 12:44:18;;;;;;;11.80;6.07;;;14.90;99.90;;;;;;5067963;28;20398;-85
2022/05/02 12:46:49;;;;;;;11.32;5.57;;;14.80;99.90;;;;;;5067519;28;20729;-84
2022/05/02 12:49:28;;;;;;;12.00;5.68;;;14.80;99.90;;;;;;5067319;28;20402;-84
2022/05/02 12:51:57;;;;;;;11.82;5.80;;;14.90;99.90;;;;;;5067105;28;20726;-85
2022/05/02 12:54:29;;;;;;;12.45;6.13;;;14.90;99.90;;;;;;5067391;28;20412;-84
2022/05/02 13:02:46;;;;;;;12.05;6.00;;;15.10;99.90;;;;;;5066784;28;20873;-85
2022/05/02 13:05:18;;;;;;;12.25;5.90;;;15.20;99.90;;;;;;5066057;28;20393;-85
2022/05/02 13:07:52;;;;;;;9.73;5.43;;;15.30;99.90;;;;;;5067752;28;20389;-84
2022/05/02 13:10:28;;;;;;;11.67;5.40;;;15.40;99.90;;;;;;5067169;28;20386;-84
2022/05/02 13:13:02;;;;;;;8.82;4.93;;;15.50;99.90;;;;;;5067133;28;20466;-85
2022/05/02 13:15:33;;;;;;;11.98;5.00;;;15.60;99.90;;;;;;5066194;28;20390;-83
2022/05/02 13:18:09;;;;;;;13.90;5.35;;;15.70;99.90;;;;;;5065420;28;20956;-84
2022/05/02 13:20:36;;;;;;;11.55;5.03;;;15.70;99.90;;;;;;5066927;28;20746;-84
2022/05/02 13:23:13;;;;;;;9.63;4.50;;;15.70;99.90;;;;;;5066705;28;20414;-85
2022/05/02 13:25:58;;;;;;;13.07;5.32;;;15.80;99.90;;;;;;5066648;28;20944;-84
2022/05/02 13:28:34;;;;;;;9.60;4.88;;;15.70;99.90;;;;;;5061435;28;20473;-84
2022/05/02 13:31:44;;;;;;;14.38;5.70;;;15.80;99.90;;;;;;5065877;28;20930;-85
2022/05/02 13:34:34;;;;;;;11.52;5.22;;;15.80;99.90;;;;;;5039030;28;20434;-86
2022/05/02 13:37:15;;;;;;;14.25;5.90;;;15.80;99.90;;;;;;5035211;28;20409;-86
2022/05/02 13:40:00;;;;;;;9.70;5.45;;;15.70;99.90;;;;;;5041213;28;20780;-86
2022/05/02 13:43:03;;;;;;;10.25;4.97;;;15.60;99.90;;;;;;5029219;28;20385;-85
2022/05/02 13:45:41;;;;;;;12.63;5.90;;;15.60;99.90;;;;;;5027707;28;20476;-85
2022/05/02 13:48:22;;;;;;;10.63;5.57;;;15.70;99.90;;;;;;5029832;28;20453;-85
2022/05/02 13:51:29;;;;;;;17.92;6.60;;;15.70;99.90;;;;;;5035022;28;20408;-85
2022/05/02 13:54:03;;;;;;;12.30;5.57;;;15.70;99.90;;;;;;5013955;28;20389;-85
2022/05/02 13:56:59;;;;;;;13.43;5.90;;;15.70;99.90;;;;;;5025000;28;20374;-84
2022/05/02 13:59:43;;;;;;;18.67;6.75;;;15.70;99.90;;;;;;5031826;28;20388;-85
2022/05/02 14:02:55;;;;;;;18.35;6.25;;;15.60;99.90;;;;;;5027424;28;20893;-85
2022/05/02 14:05:31;;;;;;;13.00;5.70;;;15.60;99.90;;;;;;5002154;28;20411;-85
2022/05/02 14:08:00;;;;;;;16.00;5.32;;;15.60;99.90;;;;;;5004489;28;20408;-85